| time (UTC) | temp C | wind direction | speed KPH | gust KPH | rain 1hr cm | rain 24hr cm | rain mn cm | humidity % | barometer mb |
| 20260507205502 | 11 | 18 | 6.4 | 14.5 | 0.05 | 2.84 | 2.84 | 93 | 1009.7 |
| 20260507205002 | 11 | 64 | 9.7 | 14.5 | 0.05 | 2.84 | 2.84 | 92 | 1009.6 |
| 20260507204502 | 11 | 9 | 8.0 | 16.1 | 0.05 | 2.84 | 2.84 | 93 | 1009.5 |
| 20260507204003 | 11 | 46 | 11.3 | 16.1 | 0.05 | 2.84 | 2.84 | 92 | 1009.4 |
| 20260507203502 | 11 | 59 | 4.8 | 12.9 | 0.05 | 2.84 | 2.84 | 92 | 1009.1 |
| 20260507203002 | 11 | 34 | 9.7 | 11.3 | 0.05 | 2.84 | 2.84 | 92 | 1009.3 |
| 20260507202502 | 11 | 53 | 4.8 | 9.7 | 0.05 | 2.84 | 2.84 | 92 | 1009.5 |
| 20260507202002 | 10 | 48 | 6.4 | 14.5 | 0.05 | 2.84 | 2.84 | 91 | 1009.5 |
| 20260507201502 | 10 | 19 | 11.3 | 19.3 | 0.05 | 2.84 | 2.84 | 91 | 1009.4 |
| 20260507201002 | 10 | 5 | 8.0 | 19.3 | 0.05 | 2.84 | 2.84 | 91 | 1009.1 |
| 20260507200500 | 11 | 36 | 11.3 | 19.3 | 0.03 | 2.82 | 2.82 | 90 | 1009.1 |
| 20260507200006 | 11 | 80 | 6.4 | 16.1 | 0.00 | 2.79 | 2.79 | 91 | 1009.1 |
| 20260507195502 | 11 | 20 | 3.2 | 19.3 | 0.00 | 2.79 | 2.79 | 91 | 1009.1 |
| 20260507195002 | 11 | 38 | 3.2 | 19.3 | 0.00 | 2.79 | 2.79 | 91 | 1009.0 |
| 20260507194502 | 11 | 27 | 6.4 | 22.5 | 0.00 | 2.79 | 2.79 | 91 | 1009.0 |
| 20260507194002 | 11 | 30 | 4.8 | 22.5 | 0.00 | 2.79 | 2.79 | 92 | 1009.0 |
| 20260507193502 | 11 | 55 | 9.7 | 20.9 | 0.00 | 2.79 | 2.79 | 92 | 1009.1 |
| 20260507193002 | 11 | 67 | 4.8 | 22.5 | 0.00 | 2.79 | 2.79 | 93 | 1009.3 |
| 20260507192502 | 11 | 57 | 8.0 | 22.5 | 0.00 | 2.79 | 2.79 | 94 | 1009.3 |
| 20260507192002 | 11 | 51 | 6.4 | 20.9 | 0.03 | 2.79 | 2.79 | 94 | 1009.5 |
| 20260507191502 | 11 | 46 | 9.7 | 17.7 | 0.03 | 2.79 | 2.79 | 94 | 1009.4 |
| 20260507191002 | 11 | 67 | 4.8 | 24.1 | 0.03 | 2.79 | 2.79 | 95 | 1009.5 |
| 20260507190502 | 11 | 23 | 20.9 | 24.1 | 0.05 | 2.79 | 2.79 | 95 | 1010.0 |
| 20260507190006 | 11 | 51 | 9.7 | 19.3 | 0.05 | 2.79 | 2.79 | 95 | 1010.0 |
| 20260507185502 | 11 | 26 | 4.8 | 16.1 | 0.08 | 2.79 | 2.79 | 95 | 1009.9 |
| 20260507185002 | 11 | 13 | 3.2 | 16.1 | 0.08 | 2.79 | 2.79 | 95 | 1010.2 |
| 20260507184502 | 11 | 27 | 16.1 | 17.7 | 0.13 | 2.79 | 2.79 | 95 | 1010.1 |
| 20260507184002 | 11 | 12 | 12.9 | 17.7 | 0.15 | 2.79 | 2.79 | 95 | 1010.2 |
| 20260507183502 | 11 | 24 | 4.8 | 16.1 | 0.15 | 2.79 | 2.79 | 95 | 1010.2 |
| 20260507183002 | 11 | 350 | 4.8 | 19.3 | 0.18 | 2.79 | 2.79 | 95 | 1010.1 |
| 20260507182502 | 11 | 74 | 14.5 | 22.5 | 0.20 | 2.79 | 2.79 | 95 | 1009.7 |
| 20260507182002 | 11 | 69 | 3.2 | 22.5 | 0.18 | 2.77 | 2.77 | 95 | 1009.4 |
| 20260507181502 | 11 | 51 | 11.3 | 22.5 | 0.20 | 2.77 | 2.77 | 95 | 1009.6 |
| 20260507181002 | 11 | 33 | 3.2 | 24.1 | 0.20 | 2.77 | 2.77 | 95 | 1009.8 |
| 20260507180500 | 11 | 74 | 11.3 | 16.1 | 0.20 | 2.74 | 2.74 | 95 | 1009.8 |
| 20260507180002 | 11 | 72 | 3.2 | 16.1 | 0.23 | 2.74 | 2.74 | 95 | 1010.2 |
| 20260507175502 | 11 | 34 | 8.0 | 12.9 | 0.20 | 2.72 | 2.72 | 95 | 1010.5 |
| 20260507175002 | 11 | 360 | 8.0 | 14.5 | 0.20 | 2.72 | 2.72 | 95 | 1010.7 |
| 20260507174502 | 11 | 44 | 4.8 | 17.7 | 0.18 | 2.67 | 2.67 | 95 | 1011.0 |
| 20260507174002 | 11 | 27 | 4.8 | 17.7 | 0.15 | 2.64 | 2.64 | 95 | 1010.7 |
| 20260507173502 | 11 | 14 | 6.4 | 16.1 | 0.18 | 2.64 | 2.64 | 95 | 1011.0 |
| 20260507173002 | 11 | 40 | 11.3 | 17.7 | 0.15 | 2.62 | 2.62 | 95 | 1011.1 |
| 20260507172502 | 11 | 43 | 9.7 | 17.7 | 0.18 | 2.59 | 2.59 | 95 | 1011.1 |
| 20260507172002 | 11 | 27 | 8.0 | 14.5 | 0.20 | 2.59 | 2.59 | 95 | 1011.3 |
| 20260507171502 | 11 | 48 | 6.4 | 19.3 | 0.23 | 2.57 | 2.57 | 95 | 1011.5 |
| 20260507171002 | 11 | 38 | 14.5 | 20.9 | 0.28 | 2.57 | 2.57 | 95 | 1011.3 |
| 20260507170502 | 11 | 24 | 4.8 | 20.9 | 0.30 | 2.54 | 2.54 | 95 | 1011.1 |
| 20260507170002 | 11 | 86 | 8.0 | 17.7 | 0.41 | 2.51 | 2.51 | 95 | 1011.0 |
| 20260507165502 | 11 | 31 | 12.9 | 17.7 | 0.53 | 2.51 | 2.51 | 95 | 1011.1 |
| 20260507165000 | 11 | 37 | 11.3 | 19.3 | 0.61 | 2.51 | 2.51 | 95 | 1011.1 |
| 20260507164502 | 11 | 34 | 6.4 | 19.3 | 0.71 | 2.49 | 2.49 | 95 | 1011.1 |
| 20260507164002 | 11 | 33 | 1.6 | 19.3 | 0.79 | 2.49 | 2.49 | 95 | 1011.2 |
| 20260507163502 | 11 | 44 | 8.0 | 19.3 | 0.84 | 2.46 | 2.46 | 95 | 1011.2 |
| 20260507163002 | 11 | 67 | 8.0 | 24.1 | 0.91 | 2.46 | 2.46 | 95 | 1011.2 |
| 20260507162502 | 11 | 355 | 6.4 | 24.1 | 0.97 | 2.41 | 2.41 | 95 | 1010.9 |
| 20260507162002 | 11 | 16 | 19.3 | 20.9 | 1.02 | 2.39 | 2.39 | 95 | 1011.1 |
| 20260507161502 | 11 | 34 | 16.1 | 22.5 | 0.99 | 2.34 | 2.34 | 95 | 1011.0 |
| 20260507161002 | 11 | 14 | 6.4 | 27.4 | 0.99 | 2.29 | 2.29 | 95 | 1011.0 |
| 20260507160502 | 11 | 11 | 16.1 | 29.0 | 0.97 | 2.21 | 2.21 | 95 | 1011.0 |
| 20260507160005 | 11 | 54 | 14.5 | 29.0 | 0.97 | 2.11 | 2.11 | 95 | 1010.4 |
| 20260507155502 | 11 | 88 | 11.3 | 20.9 | 0.91 | 1.98 | 1.98 | 95 | 1010.9 |
| 20260507155009 | 11 | 58 | 11.3 | 20.9 | 0.86 | 1.91 | 1.91 | 95 | 1011.0 |
| 20260507154502 | 11 | 35 | 8.0 | 22.5 | 0.74 | 1.78 | 1.78 | 95 | 1011.3 |
| 20260507154002 | 11 | 49 | 19.3 | 25.7 | 0.66 | 1.70 | 1.70 | 95 | 1011.3 |
| 20260507153502 | 11 | 46 | 11.3 | 30.6 | 0.61 | 1.63 | 1.63 | 95 | 1011.3 |
| 20260507153003 | 11 | 57 | 14.5 | 30.6 | 0.53 | 1.55 | 1.55 | 95 | 1011.3 |
| 20260507152503 | 12 | 34 | 8.0 | 27.4 | 0.43 | 1.45 | 1.45 | 95 | 1011.5 |
| 20260507152002 | 12 | 55 | 11.3 | 27.4 | 0.38 | 1.37 | 1.37 | 95 | 1011.5 |
| 20260507151502 | 12 | 22 | 9.7 | 27.4 | 0.36 | 1.35 | 1.35 | 96 | 1011.3 |
| 20260507151002 | 12 | 28 | 14.5 | 27.4 | 0.30 | 1.30 | 1.30 | 95 | 1011.2 |
| 20260507150502 | 12 | 53 | 8.0 | 20.9 | 0.25 | 1.24 | 1.24 | 96 | 1011.1 |
| 20260507150006 | 12 | 34 | 9.7 | 17.7 | 0.15 | 1.14 | 1.14 | 96 | 1011.4 |
| 20260507145502 | 12 | 42 | 4.8 | 22.5 | 0.10 | 1.07 | 1.07 | 96 | 1011.4 |
| 20260507145002 | 12 | 77 | 17.7 | 27.4 | 0.10 | 1.04 | 1.04 | 96 | 1011.1 |
| 20260507144502 | 12 | 27 | 19.3 | 29.0 | 0.10 | 1.04 | 1.04 | 95 | 1011.2 |
| 20260507144002 | 13 | 31 | 14.5 | 24.1 | 0.10 | 1.04 | 1.04 | 96 | 1011.1 |
| 20260507143502 | 13 | 45 | 11.3 | 27.4 | 0.08 | 1.02 | 1.02 | 96 | 1011.0 |
| 20260507143002 | 13 | 24 | 22.5 | 29.0 | 0.10 | 1.02 | 1.02 | 96 | 1011.0 |
| 20260507142502 | 13 | 61 | 17.7 | 29.0 | 0.10 | 1.02 | 1.02 | 96 | 1010.9 |
| 20260507142002 | 13 | 28 | 4.8 | 24.1 | 0.10 | 0.99 | 0.99 | 96 | 1010.7 |
| 20260507141502 | 13 | 57 | 20.9 | 29.0 | 0.13 | 0.99 | 0.99 | 96 | 1010.7 |
| 20260507141002 | 13 | 39 | 11.3 | 30.6 | 0.18 | 0.99 | 0.99 | 96 | 1010.6 |
| 20260507140500 | 13 | 32 | 14.5 | 30.6 | 0.23 | 0.99 | 0.99 | 96 | 1010.7 |
| 20260507140006 | 14 | 71 | 6.4 | 30.6 | 0.23 | 0.99 | 0.99 | 96 | 1010.6 |
| 20260507135502 | 14 | 5 | 9.7 | 30.6 | 0.20 | 0.97 | 0.97 | 96 | 1010.6 |
| 20260507135002 | 14 | 42 | 16.1 | 30.6 | 0.18 | 0.94 | 0.94 | 96 | 1010.5 |
| 20260507134502 | 15 | 29 | 16.1 | 20.9 | 0.18 | 0.94 | 0.94 | 96 | 1010.6 |
| 20260507134002 | 15 | 43 | 14.5 | 20.9 | 0.18 | 0.94 | 0.94 | 96 | 1010.6 |
| 20260507133502 | 15 | 41 | 4.8 | 20.9 | 0.20 | 0.94 | 0.94 | 96 | 1010.4 |
| 20260507133002 | 15 | 10 | 8.0 | 22.5 | 0.20 | 0.91 | 0.91 | 96 | 1010.4 |
| 20260507132502 | 15 | 13 | 8.0 | 27.4 | 0.23 | 0.91 | 0.91 | 96 | 1010.6 |
| 20260507132003 | 15 | 55 | 4.8 | 27.4 | 0.23 | 0.89 | 0.89 | 96 | 1010.5 |
| 20260507131502 | 15 | 24 | 8.0 | 14.5 | 0.25 | 0.86 | 0.86 | 96 | 1010.4 |
| 20260507131002 | 15 | 23 | 4.8 | 12.9 | 0.25 | 0.81 | 0.81 | 96 | 1010.5 |
| 20260507130502 | 15 | 334 | 4.8 | 9.7 | 0.23 | 0.76 | 0.76 | 96 | 1010.9 |
| 20260507130002 | 15 | 24 | 1.6 | 14.5 | 0.25 | 0.76 | 0.76 | 96 | 1010.9 |
| 20260507125500 | 15 | 273 | 3.2 | 14.5 | 0.28 | 0.76 | 0.76 | 96 | 1010.9 |
| 20260507125002 | 15 | 30 | 3.2 | 14.5 | 0.30 | 0.76 | 0.76 | 96 | 1010.5 |
| 20260507124500 | 15 | 10 | 6.4 | 19.3 | 0.36 | 0.76 | 0.76 | 96 | 1010.6 |
| 20260507124002 | 15 | 92 | 6.4 | 12.9 | 0.36 | 0.76 | 0.76 | 96 | 1010.7 |
| 20260507123502 | 15 | 9 | 6.4 | 17.7 | 0.36 | 0.74 | 0.74 | 96 | 1010.6 |
| 20260507123002 | 15 | 360 | 8.0 | 17.7 | 0.41 | 0.71 | 0.71 | 96 | 1010.6 |
| 20260507122502 | 15 | 36 | 9.7 | 16.1 | 0.43 | 0.69 | 0.69 | 96 | 1010.9 |
| 20260507122002 | 15 | 11 | 3.2 | 16.1 | 0.46 | 0.66 | 0.66 | 95 | 1010.7 |
| 20260507121502 | 16 | 26 | 6.4 | 17.7 | 0.43 | 0.61 | 0.61 | 95 | 1010.6 |
| 20260507121007 | 16 | 28 | 3.2 | 17.7 | 0.41 | 0.56 | 0.56 | 95 | 1010.6 |
| 20260507120502 | 16 | 19 | 6.4 | 22.5 | 0.38 | 0.53 | 0.53 | 95 | 1010.4 |
| 20260507120006 | 16 | 17 | 19.3 | 22.5 | 0.38 | 0.51 | 0.51 | 95 | 1010.3 |
| 20260507115502 | 17 | 360 | 8.0 | 22.5 | 0.36 | 0.48 | 0.48 | 94 | 1010.4 |
| 20260507115002 | 18 | 276 | 0.0 | 8.0 | 0.33 | 0.46 | 0.46 | 96 | 1010.2 |
| 20260507114502 | 18 | 227 | 1.6 | 8.0 | 0.30 | 0.41 | 0.41 | 95 | 1010.2 |
| 20260507114002 | 18 | 242 | 1.6 | 8.0 | 0.30 | 0.41 | 0.41 | 95 | 1010.1 |
| 20260507113502 | 18 | 261 | 1.6 | 9.7 | 0.30 | 0.38 | 0.38 | 95 | 1009.9 |
| 20260507113002 | 18 | 295 | 3.2 | 9.7 | 0.28 | 0.30 | 0.30 | 95 | 1009.9 |
| 20260507112500 | 18 | 268 | 6.4 | 9.7 | 0.23 | 0.25 | 0.25 | 95 | 1010.1 |
| 20260507112002 | 18 | 290 | 3.2 | 8.0 | 0.18 | 0.20 | 0.20 | 95 | 1010.1 |
| 20260507111503 | 18 | 251 | 0.0 | 4.8 | 0.15 | 0.18 | 0.18 | 95 | 1010.2 |
| 20260507111002 | 18 | 333 | 1.6 | 4.8 | 0.13 | 0.15 | 0.15 | 95 | 1010.0 |
| 20260507110502 | 18 | 322 | 1.6 | 4.8 | 0.15 | 0.15 | 0.15 | 94 | 1010.1 |
| 20260507110003 | 18 | 221 | 1.6 | 4.8 | 0.13 | 0.13 | 0.13 | 94 | 1010.1 |
| 20260507105502 | 18 | 94 | 1.6 | 3.2 | 0.13 | 0.13 | 0.13 | 94 | 1010.1 |
| 20260507105002 | 18 | 193 | 0.0 | 6.4 | 0.13 | 0.13 | 0.13 | 94 | 1010.0 |
| 20260507104502 | 18 | 292 | 0.0 | 6.4 | 0.10 | 0.10 | 0.10 | 93 | 1009.9 |
| 20260507104003 | 18 | 343 | 0.0 | 4.8 | 0.10 | 0.10 | 0.10 | 93 | 1009.9 |
| 20260507103501 | 18 | 292 | 1.6 | 4.8 | 0.08 | 0.08 | 0.08 | 92 | 1009.9 |
| 20260507103002 | 18 | 293 | 1.6 | 11.3 | 0.03 | 0.03 | 0.03 | 91 | 1009.9 |
| 20260507102500 | 19 | 294 | 3.2 | 11.3 | 0.03 | 0.03 | 0.03 | 91 | 1009.6 |
| 20260507102002 | 19 | 221 | 0.0 | 11.3 | 0.03 | 0.03 | 0.03 | 90 | 1009.4 |
| 20260507101501 | 19 | 224 | 8.0 | 16.1 | 0.03 | 0.03 | 0.03 | 89 | 1009.3 |
| 20260507101002 | 20 | 211 | 4.8 | 16.1 | 0.03 | 0.03 | 0.03 | 88 | 1009.1 |
| 20260507100500 | 20 | 233 | 4.8 | 16.1 | 0.00 | 0.00 | 0.00 | 88 | 1009.1 |
| 20260507100000 | 20 | 211 | 3.2 | 16.1 | 0.00 | 0.00 | 0.00 | 87 | 1009.1 |
| 20260507095500 | 20 | 213 | 6.4 | 16.1 | 0.00 | 0.00 | 0.00 | 87 | 1009.1 |
| 20260507095002 | 20 | 218 | 8.0 | 16.1 | 0.00 | 0.00 | 0.00 | 87 | 1009.1 |
| 20260507094500 | 20 | 194 | 1.6 | 14.5 | 0.00 | 0.00 | 0.00 | 87 | 1008.9 |
| 20260507094002 | 20 | 192 | 6.4 | 14.5 | 0.00 | 0.00 | 0.00 | 87 | 1008.9 |
| 20260507093500 | 20 | 232 | 4.8 | 14.5 | 0.00 | 0.00 | 0.00 | 87 | 1008.8 |
| 20260507093002 | 20 | 244 | 4.8 | 17.7 | 0.00 | 0.00 | 0.00 | 87 | 1008.9 |
| 20260507092500 | 20 | 230 | 9.7 | 12.9 | 0.00 | 0.00 | 0.00 | 86 | 1008.8 |
| 20260507092000 | 20 | 256 | 4.8 | 14.5 | 0.00 | 0.00 | 0.00 | 86 | 1009.1 |
| 20260507091500 | 20 | 225 | 12.9 | 20.9 | 0.00 | 0.00 | 0.00 | 86 | 1009.1 |
| 20260507091002 | 20 | 211 | 8.0 | 16.1 | 0.00 | 0.00 | 0.00 | 86 | 1009.1 |
| 20260507090502 | 20 | 234 | 11.3 | 16.1 | 0.00 | 0.00 | 0.00 | 86 | 1009.1 |
| 20260507090003 | 20 | 302 | 6.4 | 14.5 | 0.00 | 0.00 | 0.00 | 85 | 1009.2 |
| 20260507085502 | 20 | 230 | 9.7 | 14.5 | 0.00 | 0.00 | 0.00 | 85 | 1009.3 |
| 20260507085002 | 20 | 223 | 6.4 | 12.9 | 0.00 | 0.00 | 0.00 | 85 | 1009.3 |
| 20260507084500 | 20 | 248 | 8.0 | 12.9 | 0.00 | 0.00 | 0.00 | 85 | 1009.4 |
| 20260507084002 | 20 | 213 | 4.8 | 12.9 | 0.00 | 0.00 | 0.00 | 85 | 1009.4 |
| 20260507083500 | 20 | 230 | 6.4 | 12.9 | 0.00 | 0.00 | 0.00 | 84 | 1009.5 |
| 20260507083002 | 20 | 219 | 4.8 | 12.9 | 0.00 | 0.00 | 0.00 | 84 | 1009.5 |
| 20260507082502 | 20 | 231 | 4.8 | 17.7 | 0.00 | 0.00 | 0.00 | 84 | 1009.7 |
| 20260507082000 | 20 | 225 | 3.2 | 17.7 | 0.00 | 0.00 | 0.00 | 84 | 1009.7 |
| 20260507081500 | 20 | 205 | 4.8 | 14.5 | 0.00 | 0.00 | 0.00 | 84 | 1009.7 |
| 20260507081002 | 20 | 218 | 3.2 | 9.7 | 0.00 | 0.00 | 0.00 | 84 | 1009.7 |
| 20260507080500 | 20 | 224 | 0.0 | 12.9 | 0.00 | 0.00 | 0.00 | 85 | 1009.6 |
| 20260507080002 | 20 | 211 | 6.4 | 12.9 | 0.00 | 0.00 | 0.00 | 84 | 1009.8 |
| 20260507075459 | 20 | 205 | 3.2 | 12.9 | 0.00 | 0.00 | 0.00 | 84 | 1009.9 |
| 20260507075000 | 20 | 229 | 0.0 | 16.1 | 0.00 | 0.00 | 0.00 | 84 | 1010.1 |
| 20260507074459 | 20 | 207 | 6.4 | 16.1 | 0.00 | 0.00 | 0.00 | 84 | 1010.1 |
| 20260507074002 | 20 | 196 | 6.4 | 12.9 | 0.00 | 0.00 | 0.00 | 84 | 1009.9 |
| 20260507073500 | 20 | 250 | 11.3 | 14.5 | 0.00 | 0.00 | 0.00 | 85 | 1009.9 |
| 20260507073002 | 20 | 198 | 6.4 | 16.1 | 0.00 | 0.00 | 0.00 | 85 | 1010.0 |
| 20260507072459 | 20 | 175 | 3.2 | 14.5 | 0.00 | 0.00 | 0.00 | 85 | 1009.9 |
| 20260507072001 | 20 | 194 | 4.8 | 14.5 | 0.00 | 0.00 | 0.00 | 86 | 1009.9 |
| 20260507071500 | 20 | 213 | 8.0 | 11.3 | 0.00 | 0.00 | 0.00 | 86 | 1009.7 |
| 20260507071002 | 20 | 221 | 4.8 | 9.7 | 0.00 | 0.00 | 0.00 | 86 | 1009.8 |
| 20260507070500 | 19 | 210 | 6.4 | 9.7 | 0.00 | 0.00 | 0.00 | 87 | 1009.8 |
| 20260507070003 | 19 | 205 | 4.8 | 11.3 | 0.00 | 0.00 | 0.00 | 87 | 1009.7 |
| 20260507065500 | 19 | 198 | 3.2 | 11.3 | 0.00 | 0.00 | 0.00 | 87 | 1009.4 |
| 20260507065002 | 19 | 204 | 1.6 | 6.4 | 0.00 | 0.00 | 0.00 | 86 | 1009.3 |
| 20260507064500 | 20 | 202 | 1.6 | 9.7 | 0.00 | 0.00 | 0.00 | 85 | 1009.3 |
| 20260507064002 | 20 | 200 | 4.8 | 9.7 | 0.00 | 0.00 | 0.00 | 84 | 1009.3 |
| 20260507063500 | 20 | 167 | 6.4 | 11.3 | 0.00 | 0.00 | 0.00 | 84 | 1009.1 |
| 20260507063002 | 20 | 207 | 1.6 | 12.9 | 0.00 | 0.00 | 0.00 | 84 | 1009.6 |
| 20260507062500 | 20 | 196 | 4.8 | 12.9 | 0.00 | 0.00 | 0.00 | 84 | 1009.9 |
| 20260507062002 | 20 | 211 | 4.8 | 11.3 | 0.00 | 0.00 | 0.00 | 84 | 1010.4 |
| 20260507061459 | 20 | 221 | 4.8 | 11.3 | 0.00 | 0.00 | 0.00 | 84 | 1010.5 |
| 20260507061002 | 20 | 202 | 6.4 | 12.9 | 0.00 | 0.00 | 0.00 | 83 | 1010.6 |
| 20260507060502 | 20 | 203 | 1.6 | 12.9 | 0.00 | 0.00 | 0.00 | 83 | 1010.6 |
| 20260507060003 | 20 | 246 | 3.2 | 14.5 | 0.00 | 0.00 | 0.00 | 82 | 1010.8 |
| 20260507055501 | 20 | 249 | 6.4 | 14.5 | 0.00 | 0.00 | 0.00 | 80 | 1010.9 |
| 20260507055002 | 20 | 225 | 14.5 | 14.5 | 0.00 | 0.00 | 0.00 | 80 | 1010.9 |
| 20260507054459 | 20 | 214 | 4.8 | 12.9 | 0.00 | 0.00 | 0.00 | 78 | 1011.0 |
| 20260507054002 | 21 | 220 | 6.4 | 12.9 | 0.00 | 0.00 | 0.00 | 77 | 1011.0 |
| 20260507053500 | 21 | 202 | 11.3 | 12.9 | 0.00 | 0.00 | 0.00 | 76 | 1010.8 |
| 20260507053003 | 21 | 199 | 6.4 | 16.1 | 0.00 | 0.00 | 0.00 | 75 | 1010.9 |
| 20260507052500 | 21 | 205 | 6.4 | 16.1 | 0.00 | 0.00 | 0.00 | 74 | 1010.9 |
| 20260507052000 | 21 | 211 | 9.7 | 16.1 | 0.00 | 0.00 | 0.00 | 73 | 1010.9 |
| 20260507051500 | 21 | 227 | 3.2 | 12.9 | 0.00 | 0.00 | 0.00 | 73 | 1010.8 |
| 20260507051002 | 21 | 229 | 9.7 | 16.1 | 0.00 | 0.00 | 0.00 | 72 | 1010.8 |
| 20260507050502 | 21 | 213 | 3.2 | 12.9 | 0.00 | 0.00 | 0.00 | 72 | 1010.7 |
| 20260507050002 | 21 | 215 | 8.0 | 16.1 | 0.00 | 0.00 | 0.00 | 71 | 1010.5 |
| 20260507045500 | 21 | 203 | 6.4 | 16.1 | 0.00 | 0.00 | 0.00 | 71 | 1010.5 |
| 20260507045000 | 21 | 214 | 6.4 | 16.1 | 0.00 | 0.00 | 0.00 | 71 | 1010.6 |
| 20260507044500 | 21 | 212 | 9.7 | 16.1 | 0.00 | 0.00 | 0.00 | 70 | 1010.6 |
| 20260507044002 | 22 | 209 | 6.4 | 16.1 | 0.00 | 0.00 | 0.00 | 70 | 1010.7 |
| 20260507043502 | 22 | 215 | 4.8 | 16.1 | 0.00 | 0.00 | 0.00 | 70 | 1010.7 |
| 20260507043002 | 22 | 228 | 6.4 | 16.1 | 0.00 | 0.00 | 0.00 | 70 | 1010.9 |
| 20260507042502 | 22 | 194 | 12.9 | 19.3 | 0.00 | 0.00 | 0.00 | 70 | 1010.9 |
| 20260507042003 | 21 | 224 | 8.0 | 19.3 | 0.00 | 0.00 | 0.00 | 70 | 1010.9 |
| 20260507041502 | 22 | 211 | 9.7 | 20.9 | 0.00 | 0.00 | 0.00 | 69 | 1010.9 |
| 20260507041003 | 22 | 209 | 4.8 | 16.1 | 0.00 | 0.00 | 0.00 | 69 | 1010.7 |
| 20260507040502 | 22 | 221 | 6.4 | 17.7 | 0.00 | 0.00 | 0.00 | 69 | 1010.6 |
| 20260507040008 | 22 | 214 | 8.0 | 17.7 | 0.00 | 0.00 | 0.00 | 70 | 1010.5 |
| 20260507035504 | 22 | 172 | 11.3 | 19.3 | 0.00 | 0.00 | 0.00 | 70 | 1010.2 |
| 20260507035004 | 22 | 172 | 12.9 | 19.3 | 0.00 | 0.00 | 0.00 | 70 | 1010.2 |
| 20260507034502 | 22 | 188 | 12.9 | 19.3 | 0.00 | 0.00 | 0.00 | 70 | 1010.3 |
| 20260507034004 | 22 | 220 | 11.3 | 17.7 | 0.00 | 0.00 | 0.00 | 70 | 1010.4 |
| 20260507033503 | 22 | 200 | 9.7 | 17.7 | 0.00 | 0.00 | 0.00 | 71 | 1010.4 |
| 20260507033003 | 22 | 206 | 11.3 | 16.1 | 0.00 | 0.00 | 0.00 | 71 | 1010.2 |
| 20260507032504 | 22 | 201 | 8.0 | 17.7 | 0.00 | 0.00 | 0.00 | 72 | 1010.1 |
| 20260507032003 | 22 | 213 | 11.3 | 17.7 | 0.00 | 0.00 | 0.00 | 73 | 1010.4 |
| 20260507031502 | 22 | 199 | 4.8 | 12.9 | 0.00 | 0.00 | 0.00 | 74 | 1010.6 |
| 20260507031005 | 22 | 211 | 6.4 | 12.9 | 0.00 | 0.00 | 0.00 | 75 | 1010.6 |
| 20260507030503 | 22 | 197 | 8.0 | 12.9 | 0.00 | 0.00 | 0.00 | 75 | 1010.6 |
| 20260507030005 | 22 | 191 | 6.4 | 9.7 | 0.00 | 0.00 | 0.00 | 74 | 1010.5 |
| 20260507025502 | 22 | 209 | 6.4 | 9.7 | 0.00 | 0.00 | 0.00 | 74 | 1010.4 |
| 20260507025003 | 22 | 229 | 6.4 | 11.3 | 0.00 | 0.00 | 0.00 | 74 | 1010.6 |
| 20260507024504 | 22 | 205 | 4.8 | 11.3 | 0.00 | 0.00 | 0.00 | 73 | 1010.7 |
| 20260507024003 | 22 | 223 | 9.7 | 12.9 | 0.00 | 0.00 | 0.00 | 73 | 1010.9 |
| 20260507023503 | 22 | 201 | 6.4 | 12.9 | 0.00 | 0.00 | 0.00 | 72 | 1011.0 |
| 20260507023002 | 23 | 216 | 8.0 | 14.5 | 0.00 | 0.00 | 0.00 | 72 | 1011.1 |
| 20260507022502 | 23 | 213 | 8.0 | 14.5 | 0.00 | 0.00 | 0.00 | 72 | 1011.2 |
| 20260507022002 | 23 | 211 | 8.0 | 16.1 | 0.00 | 0.00 | 0.00 | 72 | 1011.1 |
| 20260507021502 | 23 | 227 | 14.5 | 17.7 | 0.00 | 0.00 | 0.00 | 72 | 1010.9 |
| 20260507021002 | 23 | 208 | 6.4 | 12.9 | 0.00 | 0.00 | 0.00 | 72 | 1011.0 |
| 20260507020502 | 23 | 211 | 8.0 | 16.1 | 0.00 | 0.00 | 0.00 | 72 | 1011.0 |
| 20260507020005 | 23 | 214 | 4.8 | 16.1 | 0.00 | 0.00 | 0.00 | 72 | 1011.1 |
| 20260507015502 | 23 | 203 | 3.2 | 14.5 | 0.00 | 0.00 | 0.00 | 72 | 1011.2 |
| 20260507015003 | 23 | 205 | 4.8 | 19.3 | 0.00 | 0.00 | 0.00 | 72 | 1011.1 |
| 20260507014502 | 23 | 215 | 11.3 | 19.3 | 0.00 | 0.00 | 0.00 | 72 | 1011.0 |
| 20260507014003 | 23 | 196 | 8.0 | 16.1 | 0.00 | 0.00 | 0.00 | 72 | 1010.8 |
| 20260507013502 | 23 | 216 | 3.2 | 14.5 | 0.00 | 0.00 | 0.00 | 72 | 1010.7 |
| 20260507013003 | 23 | 187 | 14.5 | 16.1 | 0.00 | 0.00 | 0.00 | 72 | 1011.0 |
| 20260507012503 | 23 | 215 | 6.4 | 16.1 | 0.00 | 0.00 | 0.00 | 72 | 1010.9 |
| 20260507012003 | 23 | 221 | 3.2 | 16.1 | 0.00 | 0.00 | 0.00 | 72 | 1011.0 |
| 20260507011503 | 23 | 222 | 6.4 | 16.1 | 0.00 | 0.00 | 0.00 | 72 | 1010.9 |
| 20260507011005 | 23 | 205 | 6.4 | 19.3 | 0.00 | 0.00 | 0.00 | 72 | 1011.0 |
| 20260507010503 | 23 | 203 | 11.3 | 19.3 | 0.00 | 0.00 | 0.00 | 72 | 1011.0 |
| 20260507010005 | 23 | 232 | 8.0 | 19.3 | 0.00 | 0.00 | 0.00 | 72 | 1011.0 |
| 20260507005502 | 23 | 181 | 8.0 | 16.1 | 0.00 | 0.00 | 0.00 | 72 | 1011.0 |
| 20260507005003 | 23 | 250 | 3.2 | 16.1 | 0.00 | 0.00 | 0.00 | 72 | 1010.9 |
| 20260507004502 | 23 | 194 | 8.0 | 12.9 | 0.00 | 0.00 | 0.00 | 72 | 1010.8 |
| 20260507004002 | 23 | 164 | 1.6 | 16.1 | 0.00 | 0.00 | 0.00 | 72 | 1010.7 |
| 20260507003502 | 23 | 213 | 8.0 | 16.1 | 0.00 | 0.00 | 0.00 | 71 | 1010.6 |
| 20260507003002 | 23 | 196 | 6.4 | 11.3 | 0.00 | 0.00 | 0.00 | 71 | 1010.7 |
| 20260507002502 | 23 | 198 | 3.2 | 8.0 | 0.00 | 0.00 | 0.00 | 70 | 1010.6 |
| 20260507002002 | 23 | 172 | 4.8 | 9.7 | 0.00 | 0.00 | 0.00 | 70 | 1010.5 |
| 20260507001502 | 23 | 204 | 4.8 | 9.7 | 0.00 | 0.00 | 0.00 | 69 | 1010.4 |
| 20260507001002 | 24 | 190 | 6.4 | 11.3 | 0.00 | 0.00 | 0.00 | 69 | 1010.3 |
| 20260507000502 | 24 | 191 | 3.2 | 11.3 | 0.00 | 0.00 | 0.00 | 69 | 1010.3 |
| 20260507000003 | 23 | 186 | 3.2 | 6.4 | 0.00 | 0.00 | 0.00 | 70 | 1010.3 |
| 20260506235502 | 23 | 181 | 1.6 | 6.4 | 0.00 | 0.00 | 0.00 | 69 | 1010.3 |
| 20260506235002 | 23 | 192 | 3.2 | 8.0 | 0.00 | 0.00 | 0.00 | 70 | 1010.3 |
| 20260506234502 | 24 | 213 | 1.6 | 8.0 | 0.00 | 0.00 | 0.00 | 69 | 1010.1 |
| 20260506234002 | 24 | 214 | 3.2 | 6.4 | 0.00 | 0.00 | 0.00 | 69 | 1010.0 |
| 20260506233502 | 24 | 213 | 1.6 | 6.4 | 0.00 | 0.00 | 0.00 | 68 | 1010.0 |
| 20260506233002 | 24 | 216 | 3.2 | 9.7 | 0.00 | 0.00 | 0.00 | 68 | 1010.0 |
| 20260506232502 | 24 | 209 | 3.2 | 9.7 | 0.00 | 0.00 | 0.00 | 67 | 1010.0 |
| 20260506232002 | 24 | 206 | 4.8 | 9.7 | 0.00 | 0.00 | 0.00 | 67 | 1009.9 |
| 20260506231502 | 25 | 202 | 3.2 | 9.7 | 0.00 | 0.00 | 0.00 | 66 | 1009.9 |
| 20260506231002 | 25 | 201 | 4.8 | 9.7 | 0.00 | 0.00 | 0.00 | 65 | 1009.9 |
| 20260506230502 | 25 | 206 | 4.8 | 9.7 | 0.00 | 0.00 | 0.00 | 64 | 1009.9 |
| 20260506230004 | 25 | 223 | 4.8 | 11.3 | 0.00 | 0.00 | 0.00 | 65 | 1009.8 |
| 20260506225502 | 25 | 219 | 3.2 | 9.7 | 0.00 | 0.00 | 0.00 | 65 | 1009.8 |
| 20260506225002 | 25 | 234 | 4.8 | 12.9 | 0.00 | 0.00 | 0.00 | 65 | 1009.7 |
| 20260506224502 | 25 | 203 | 6.4 | 14.5 | 0.00 | 0.00 | 0.00 | 64 | 1009.8 |
| 20260506224002 | 25 | 236 | 6.4 | 14.5 | 0.00 | 0.00 | 0.00 | 64 | 1009.9 |
| 20260506223502 | 25 | 221 | 3.2 | 16.1 | 0.00 | 0.00 | 0.00 | 63 | 1009.8 |
| 20260506223002 | 25 | 234 | 4.8 | 19.3 | 0.00 | 0.00 | 0.00 | 63 | 1009.8 |
| 20260506222502 | 25 | 215 | 14.5 | 22.5 | 0.00 | 0.00 | 0.00 | 62 | 1009.8 |
| 20260506222002 | 25 | 194 | 12.9 | 22.5 | 0.00 | 0.00 | 0.00 | 62 | 1009.8 |
| 20260506221502 | 25 | 215 | 11.3 | 16.1 | 0.00 | 0.00 | 0.00 | 62 | 1009.8 |
| 20260506220502 | 25 | 219 | 4.8 | 17.7 | 0.00 | 0.00 | 0.00 | 61 | 1009.8 |
| 20260506220005 | 25 | 175 | 9.7 | 17.7 | 0.00 | 0.00 | 0.00 | 61 | 1009.8 |
| 20260506215502 | 26 | 222 | 11.3 | 17.7 | 0.00 | 0.00 | 0.00 | 61 | 1010.0 |
| 20260506215002 | 26 | 192 | 6.4 | 25.7 | 0.00 | 0.00 | 0.00 | 61 | 1009.7 |
| 20260506214502 | 26 | 239 | 17.7 | 24.1 | 0.00 | 0.00 | 0.00 | 60 | 1009.7 |
| 20260506214002 | 26 | 221 | 11.3 | 24.1 | 0.00 | 0.00 | 0.00 | 61 | 1009.6 |
| 20260506213502 | 26 | 219 | 19.3 | 27.4 | 0.00 | 0.00 | 0.00 | 61 | 1009.5 |
| 20260506213002 | 26 | 220 | 17.7 | 27.4 | 0.00 | 0.00 | 0.00 | 61 | 1009.4 |
| 20260506212502 | 26 | 182 | 11.3 | 20.9 | 0.00 | 0.00 | 0.00 | 61 | 1009.5 |
| 20260506212002 | 26 | 198 | 8.0 | 25.7 | 0.00 | 0.00 | 0.00 | 61 | 1009.6 |
| 20260506211502 | 26 | 244 | 12.9 | 25.7 | 0.00 | 0.00 | 0.00 | 60 | 1009.7 |
| 20260506211002 | 26 | 187 | 16.1 | 25.7 | 0.00 | 0.00 | 0.00 | 60 | 1009.9 |
| 20260506210502 | 26 | 197 | 6.4 | 25.7 | 0.00 | 0.00 | 0.00 | 60 | 1009.9 |
| 20260506210007 | 26 | 222 | 11.3 | 25.7 | 0.00 | 0.00 | 0.00 | 60 | 1010.0 |